Marietta, GA (30006)

1:16 PM EST on February 10, 2016 (GMT -0500)
ChaserFromGa.Com | | Change Station
CLOSE
Current Station
Personal Weather Station
Location: Marietta, GA
Elevation: 1115 ft
Nearby Weather Stations

Elev 1115 ft 33.96 °N, 84.55 °W | Updated 4 seconds ago

Partly Cloudy
Partly Cloudy
30.1 °F
Feels Like 25 °F
N
5.0
Wind Variable Wind from NW
Gusts 6.0 mph

Today
High -- | Low -- °F
--% Chance of Precip.
Yesterday
High -- | Low -- °F
Precip. -- in
Pressure 30.15 in
Visibility 10.0 miles
Clouds Few 4500 ft
Windchill 25 °F
Dew Point 12 °F
Humidity 47%
Rainfall 0.00 in
Snow Depth Not available.
7:28 AM 6:17 PM
Waxing Crescent, 6% visible
METAR KMGE 101758Z 27015G24KT 10SM FEW045 00/M12 A3011 RMK AO2A PK WND 28027/41 SLP209 P0000 60000 T00031122 10003 21063 58004 $
Pressure 30.15 in
Visibility 10.0 miles
Clouds Few 4500 ft
Windchill 25 °F
Dew Point 12 °F
Humidity 47%
Rainfall 0.00 in
Snow Depth Not available.
7:28 AM 6:17 PM
Waxing Crescent, 6% visible
METAR KMGE 101758Z 27015G24KT 10SM FEW045 00/M12 A3011 RMK AO2A PK WND 28027/41 SLP209 P0000 60000 T00031122 10003 21063 58004 $

10-Day Weather Forecast

Almanac

Astronomy

Feb. 10, 2016 Rise Set
Actual Time
Civil Twilight
Nautical Twilight
Astronomical Twilight
Moon
Length of Visible Light
Length of Day
Tomorrow will be .
, % of the Moon is Illuminated

Today's Extremes

State Highs State Lows

Community

WunderPhotos

Upload Photos

1,891,906 photos uploaded!

WunderBlog® & News

Nearby

Air Quality

  Air Quality AQ Index Pollutant
Not available.

Snow Depth

Station Depth Elevation

Earthquake Activity

City Distance Mag. Time & Date
Minimum magnitude displayed is 2.5.

Coastal Water Temperatures

Place Temperature

Stations

Nearby Weather Stations

Station Location Temp. Windchill Dew Point Humidity Wind Precip. Elev Updated Type
                   

Watches & Warnings

There are currently no watches in effect.